createdAt,value
2017-06-05T00:01:40.410Z,1015.7
2017-06-05T00:02:42.718Z,1015.7
2017-06-05T00:04:48.445Z,1015.7
2017-06-05T00:06:54.045Z,1015.7
2017-06-05T00:07:56.853Z,1015.7
2017-06-05T00:08:59.160Z,1015.7
2017-06-05T00:11:04.881Z,1015.7
2017-06-05T00:12:07.692Z,1015.7
2017-06-05T00:13:10.501Z,1015.7
2017-06-05T00:14:12.873Z,1015.7
2017-06-05T00:15:15.677Z,1015.7
2017-06-05T00:16:18.483Z,1015.7
2017-06-05T00:17:21.287Z,1015.8
2017-06-05T00:19:26.890Z,1015.8
2017-06-05T00:20:29.198Z,1015.8
2017-06-05T00:22:34.824Z,1015.8
2017-06-05T00:23:37.638Z,1015.8
2017-06-05T00:25:42.854Z,1015.9
2017-06-05T00:26:45.666Z,1015.9
2017-06-05T00:27:48.477Z,1015.9
2017-06-05T00:28:51.281Z,1016
2017-06-05T00:29:54.085Z,1016
2017-06-05T00:30:56.900Z,1016
2017-06-05T00:34:05.029Z,1016
2017-06-05T00:35:07.845Z,1015.9
2017-06-05T00:37:13.211Z,1015.9
2017-06-05T00:39:18.434Z,1015.9
2017-06-05T00:41:24.034Z,1015.9
2017-06-05T00:42:26.838Z,1015.8
2017-06-05T00:43:29.649Z,1015.8
2017-06-05T00:44:32.525Z,1015.8
2017-06-05T00:45:35.333Z,1015.8
2017-06-05T00:47:40.429Z,1015.8
2017-06-05T00:48:43.236Z,1015.9
2017-06-05T00:49:46.088Z,1015.9
2017-06-05T00:51:51.309Z,1015.8
2017-06-05T00:52:54.121Z,1015.9
2017-06-05T00:53:56.932Z,1015.9
2017-06-05T00:54:59.626Z,1015.8
2017-06-05T00:56:02.310Z,1015.9
2017-06-05T00:57:04.996Z,1015.9
2017-06-05T00:58:07.804Z,1015.9
2017-06-05T00:59:10.612Z,1015.9
2017-06-05T01:00:13.419Z,1015.9
2017-06-05T01:02:19.028Z,1015.9
2017-06-05T01:04:24.247Z,1015.9
2017-06-05T01:05:27.079Z,1015.9
2017-06-05T01:08:35.094Z,1015.9
2017-06-05T01:10:40.697Z,1015.9
2017-06-05T01:12:46.413Z,1015.9
2017-06-05T01:13:49.217Z,1016
2017-06-05T01:14:51.518Z,1015.9
2017-06-05T01:15:54.324Z,1016
2017-06-05T01:16:57.008Z,1016
2017-06-05T01:17:59.819Z,1016
2017-06-05T01:19:02.510Z,1016
2017-06-05T01:20:05.318Z,1016
2017-06-05T01:21:08.121Z,1016
2017-06-05T01:22:10.927Z,1016.2
2017-06-05T01:23:13.810Z,1016.2
2017-06-05T01:24:16.500Z,1016.2
2017-06-05T01:26:21.599Z,1016.2
2017-06-05T01:27:24.786Z,1016.2
2017-06-05T01:28:27.097Z,1016.2
2017-06-05T01:29:29.900Z,1016.2
2017-06-05T01:30:32.709Z,1016.3
2017-06-05T01:31:35.519Z,1016.3
2017-06-05T01:33:41.185Z,1016.2
2017-06-05T01:34:43.493Z,1016.2
2017-06-05T01:35:46.300Z,1016.2
2017-06-05T01:36:49.105Z,1016.3
2017-06-05T01:37:51.907Z,1016.3
2017-06-05T01:38:54.795Z,1016.3
2017-06-05T01:44:08.337Z,1016.3
2017-06-05T01:47:16.350Z,1016.3
2017-06-05T01:49:21.949Z,1016.4
2017-06-05T01:50:24.753Z,1016.4
2017-06-05T01:53:32.881Z,1016.4
2017-06-05T01:54:35.692Z,1016.4
2017-06-05T01:55:38.504Z,1016.4
2017-06-05T01:59:49.047Z,1016.4
2017-06-05T02:00:51.733Z,1016.4
2017-06-05T02:05:02.842Z,1016.5
2017-06-05T02:07:08.441Z,1016.4
2017-06-05T02:09:13.919Z,1016.5
2017-06-05T02:10:16.606Z,1016.5
2017-06-05T02:11:19.413Z,1016.5
2017-06-05T02:12:22.096Z,1016.5
2017-06-05T02:13:24.791Z,1016.5
2017-06-05T02:14:27.478Z,1016.5
2017-06-05T02:15:30.282Z,1016.5
2017-06-05T02:16:33.092Z,1016.5
2017-06-05T02:17:35.394Z,1016.5
2017-06-05T02:18:38.159Z,1016.5
2017-06-05T02:19:40.972Z,1016.5
2017-06-05T02:20:43.781Z,1016.5
2017-06-05T02:22:49.000Z,1016.5
2017-06-05T02:23:51.805Z,1016.5
2017-06-05T02:24:54.612Z,1016.5
2017-06-05T02:25:57.422Z,1016.4
2017-06-05T02:27:00.233Z,1016.4
2017-06-05T02:28:03.038Z,1016.4
2017-06-05T02:29:05.347Z,1016.4
2017-06-05T02:30:08.154Z,1016.4
2017-06-05T02:31:10.905Z,1016.4
2017-06-05T02:32:13.588Z,1016.4
2017-06-05T02:33:16.476Z,1016.4
2017-06-05T02:34:19.286Z,1016.4
2017-06-05T02:36:24.500Z,1016.4
2017-06-05T02:37:27.312Z,1016.3
2017-06-05T02:38:30.124Z,1016.4
2017-06-05T02:39:32.928Z,1016.4
2017-06-05T02:41:38.193Z,1016.4
2017-06-05T02:42:40.876Z,1016.4
2017-06-05T02:44:46.603Z,1016.4
2017-06-05T02:47:54.618Z,1016.4
2017-06-05T02:48:57.310Z,1016.4
2017-06-05T02:50:00.113Z,1016.4
2017-06-05T02:52:05.334Z,1016.3
2017-06-05T02:55:13.847Z,1016.3
2017-06-05T02:56:16.151Z,1016.3
2017-06-05T02:57:18.955Z,1016.3
2017-06-05T02:58:21.762Z,1016.3
2017-06-05T03:01:29.895Z,1016.3
2017-06-05T03:02:32.707Z,1016.3
2017-06-05T03:04:38.301Z,1016.3
2017-06-05T03:05:40.985Z,1016.3
2017-06-05T03:06:43.587Z,1016.3
2017-06-05T03:08:49.182Z,1016.3
2017-06-05T03:10:54.389Z,1016.3
2017-06-05T03:11:57.447Z,1016.3
2017-06-05T03:12:59.743Z,1016.3
2017-06-05T03:14:02.547Z,1016.3
2017-06-05T03:15:05.346Z,1016.3
2017-06-05T03:16:08.219Z,1016.3
2017-06-05T03:17:10.824Z,1016.3
2017-06-05T03:18:13.506Z,1016.3
2017-06-05T03:21:21.628Z,1016.3
2017-06-05T03:23:27.164Z,1016.4
2017-06-05T03:24:29.469Z,1016.4
2017-06-05T03:25:32.273Z,1016.4
2017-06-05T03:26:35.149Z,1016.4
2017-06-05T03:27:37.961Z,1016.4
2017-06-05T03:29:43.434Z,1016.4
2017-06-05T03:30:46.118Z,1016.4
2017-06-05T03:31:48.415Z,1016.4
2017-06-05T03:32:51.602Z,1016.4
2017-06-05T03:33:53.897Z,1016.4
2017-06-05T03:34:56.958Z,1016.4
2017-06-05T03:37:02.170Z,1016.5
2017-06-05T03:38:04.981Z,1016.5
2017-06-05T03:39:07.659Z,1016.5
2017-06-05T03:42:15.915Z,1016.5
2017-06-05T03:43:18.483Z,1016.4
2017-06-05T03:45:24.078Z,1016.4
2017-06-05T03:46:26.883Z,1016.5
2017-06-05T03:47:29.430Z,1016.5
2017-06-05T03:48:32.234Z,1016.4
2017-06-05T03:49:34.531Z,1016.5
2017-06-05T03:50:37.330Z,1016.5
2017-06-05T03:53:45.710Z,1016.4
2017-06-05T03:54:48.511Z,1016.4
2017-06-05T03:55:51.255Z,1016.4
2017-06-05T03:57:56.342Z,1016.3
2017-06-05T03:58:59.396Z,1016.4
2017-06-05T04:00:01.691Z,1016.4
2017-06-05T04:01:04.496Z,1016.4
2017-06-05T04:02:07.303Z,1016.4
2017-06-05T04:03:10.113Z,1016.4
2017-06-05T04:05:15.590Z,1016.4
2017-06-05T04:07:20.687Z,1016.4
2017-06-05T04:08:23.486Z,1016.3
2017-06-05T04:10:29.509Z,1016.3
2017-06-05T04:12:34.722Z,1016.4
2017-06-05T04:14:39.822Z,1016.4
2017-06-05T04:15:42.877Z,1016.4
2017-06-05T04:16:45.183Z,1016.4
2017-06-05T04:18:50.904Z,1016.5
2017-06-05T04:19:53.713Z,1016.5
2017-06-05T04:20:56.712Z,1016.5
2017-06-05T04:21:59.012Z,1016.5
2017-06-05T04:24:04.227Z,1016.5
2017-06-05T04:26:10.195Z,1016.5
2017-06-05T04:27:12.496Z,1016.5
2017-06-05T04:28:15.300Z,1016.5
2017-06-05T04:30:21.029Z,1016.5
2017-06-05T04:31:23.630Z,1016.6
2017-06-05T04:32:26.315Z,1016.6
2017-06-05T04:33:28.878Z,1016.5
2017-06-05T04:36:37.309Z,1016.6
2017-06-05T04:38:42.524Z,1016.6
2017-06-05T04:39:45.332Z,1016.6
2017-06-05T04:40:48.015Z,1016.6
2017-06-05T04:41:50.948Z,1016.6
2017-06-05T04:42:53.251Z,1016.6
2017-06-05T04:43:56.444Z,1016.6
2017-06-05T04:44:58.741Z,1016.6
2017-06-05T04:46:01.550Z,1016.7
2017-06-05T04:47:04.687Z,1016.7
2017-06-05T04:48:06.992Z,1016.7
2017-06-05T04:50:12.713Z,1016.7
2017-06-05T04:51:15.520Z,1016.7
2017-06-05T04:52:18.568Z,1016.7
2017-06-05T04:54:23.662Z,1016.6
2017-06-05T04:55:26.465Z,1016.6
2017-06-05T04:56:29.152Z,1016.6
2017-06-05T04:58:34.999Z,1016.6
2017-06-05T04:59:37.120Z,1016.6
2017-06-05T05:00:39.920Z,1016.6
2017-06-05T05:01:42.726Z,1016.6
2017-06-05T05:02:45.537Z,1016.6
2017-06-05T05:03:48.589Z,1016.6
2017-06-05T05:04:50.764Z,1016.6
2017-06-05T05:06:56.478Z,1016.5
2017-06-05T05:09:02.452Z,1016.6
2017-06-05T05:10:04.748Z,1016.6
2017-06-05T05:12:10.467Z,1016.7
2017-06-05T05:13:13.223Z,1016.7
2017-06-05T05:14:15.774Z,1016.6
2017-06-05T05:15:18.592Z,1016.7
2017-06-05T05:17:23.801Z,1016.7
2017-06-05T05:18:26.869Z,1016.7
2017-06-05T05:20:32.207Z,1016.8
2017-06-05T05:21:35.082Z,1016.7
2017-06-05T05:22:37.888Z,1016.7
2017-06-05T05:23:40.458Z,1016.7
2017-06-05T05:24:43.407Z,1016.7
2017-06-05T05:25:46.466Z,1016.7
2017-06-05T05:26:48.764Z,1016.7
2017-06-05T05:27:51.567Z,1016.7
2017-06-05T05:29:57.159Z,1016.7
2017-06-05T05:31:00.219Z,1016.7
2017-06-05T05:32:02.399Z,1016.7
2017-06-05T05:33:05.198Z,1016.8
2017-06-05T05:34:08.002Z,1016.8
2017-06-05T05:35:11.076Z,1016.8
2017-06-05T05:37:16.546Z,1016.8
2017-06-05T05:38:19.349Z,1016.8
2017-06-05T05:40:25.060Z,1016.8
2017-06-05T05:41:27.865Z,1016.8
2017-06-05T05:42:30.419Z,1016.7
2017-06-05T05:43:33.221Z,1016.8
2017-06-05T05:44:36.024Z,1016.8
2017-06-05T05:45:38.976Z,1016.8
2017-06-05T05:46:41.272Z,1016.8
2017-06-05T05:47:44.706Z,1016.8
2017-06-05T05:48:47.001Z,1016.8
2017-06-05T05:49:49.808Z,1016.8
2017-06-05T05:50:52.615Z,1016.8
2017-06-05T05:52:58.645Z,1016.8
2017-06-05T05:54:00.945Z,1016.8
2017-06-05T05:55:03.745Z,1016.7
2017-06-05T05:56:06.548Z,1016.8
2017-06-05T05:57:09.228Z,1016.8
2017-06-05T05:58:12.295Z,1016.7
2017-06-05T05:59:14.983Z,1016.7
2017-06-05T06:00:17.787Z,1016.7
2017-06-05T06:01:20.590Z,1016.7
2017-06-05T06:02:23.397Z,1016.7
2017-06-05T06:03:26.453Z,1016.7
2017-06-05T06:04:28.749Z,1016.7
2017-06-05T06:05:31.545Z,1016.7
2017-06-05T06:06:34.348Z,1016.7
2017-06-05T06:07:37.410Z,1016.7
2017-06-05T06:08:40.468Z,1016.7
2017-06-05T06:10:45.686Z,1016.7
2017-06-05T06:11:48.368Z,1016.7
2017-06-05T06:16:00.092Z,1016.7
2017-06-05T06:17:02.390Z,1016.7
2017-06-05T06:18:05.266Z,1016.8
2017-06-05T06:19:08.067Z,1016.8
2017-06-05T06:20:10.755Z,1016.8
2017-06-05T06:21:13.811Z,1016.8
2017-06-05T06:23:19.406Z,1016.8
2017-06-05T06:24:22.204Z,1016.8
2017-06-05T06:25:25.007Z,1016.8
2017-06-05T06:26:28.058Z,1016.8
2017-06-05T06:27:30.351Z,1016.8
2017-06-05T06:28:33.151Z,1016.8
2017-06-05T06:31:42.025Z,1016.8
2017-06-05T06:32:44.321Z,1016.8
2017-06-05T06:33:47.125Z,1016.8
2017-06-05T06:34:49.932Z,1016.8
2017-06-05T06:35:52.735Z,1016.8
2017-06-05T06:36:55.840Z,1016.8
2017-06-05T06:37:58.640Z,1016.9
2017-06-05T06:39:01.450Z,1016.8
2017-06-05T06:40:04.133Z,1016.8
2017-06-05T06:41:07.196Z,1016.9
2017-06-05T06:43:12.661Z,1016.9
2017-06-05T06:44:15.465Z,1016.9
2017-06-05T06:45:18.144Z,1016.9
2017-06-05T06:47:23.854Z,1016.9
2017-06-05T06:49:29.580Z,1016.9
2017-06-05T06:51:35.292Z,1016.9
2017-06-05T06:54:43.663Z,1016.9
2017-06-05T06:56:49.386Z,1016.9
2017-06-05T06:57:52.196Z,1016.9
2017-06-05T06:58:54.881Z,1016.9
2017-06-05T06:59:57.743Z,1016.9
2017-06-05T07:01:00.551Z,1016.8
2017-06-05T07:03:06.259Z,1016.8
2017-06-05T07:05:12.233Z,1016.8
2017-06-05T07:06:14.527Z,1016.8
2017-06-05T07:10:26.196Z,1016.7
2017-06-05T07:14:37.107Z,1016.8
2017-06-05T07:16:43.075Z,1016.8
2017-06-05T07:17:45.880Z,1016.8
2017-06-05T07:18:48.682Z,1016.8
2017-06-05T07:19:51.486Z,1016.8
2017-06-05T07:21:57.332Z,1016.7
2017-06-05T07:22:59.633Z,1016.8
2017-06-05T07:24:02.429Z,1016.7
2017-06-05T07:25:05.227Z,1016.7
2017-06-05T07:26:08.408Z,1016.7
2017-06-05T07:27:11.348Z,1016.7
2017-06-05T07:28:13.651Z,1016.7
2017-06-05T07:29:16.461Z,1016.7
2017-06-05T07:31:22.562Z,1016.7
2017-06-05T07:32:25.504Z,1016.7
2017-06-05T07:33:27.801Z,1016.7
2017-06-05T07:34:30.614Z,1016.7
2017-06-05T07:36:36.332Z,1016.7
2017-06-05T07:37:39.382Z,1016.7
2017-06-05T07:38:42.186Z,1016.7
2017-06-05T07:39:44.994Z,1016.6
2017-06-05T07:43:56.286Z,1016.6
2017-06-05T07:44:59.101Z,1016.6
2017-06-05T07:46:01.901Z,1016.6
2017-06-05T07:49:10.779Z,1016.7
2017-06-05T07:50:13.090Z,1016.7
2017-06-05T07:51:15.891Z,1016.7
2017-06-05T07:52:19.194Z,1016.7
2017-06-05T07:53:21.571Z,1016.7
2017-06-05T07:54:25.175Z,1016.7
2017-06-05T07:55:27.469Z,1016.7
2017-06-05T07:56:30.268Z,1016.7
2017-06-05T07:57:32.946Z,1016.7
2017-06-05T07:59:39.349Z,1016.7
2017-06-05T08:01:44.566Z,1016.7
2017-06-05T08:02:47.368Z,1016.7
2017-06-05T08:04:53.375Z,1016.6
2017-06-05T08:05:56.055Z,1016.7
2017-06-05T08:06:58.854Z,1016.7
2017-06-05T08:09:04.572Z,1016.7
2017-06-05T08:10:07.445Z,1016.6
2017-06-05T08:12:13.037Z,1016.6
2017-06-05T08:13:15.833Z,1016.6
2017-06-05T08:16:24.598Z,1016.6
2017-06-05T08:19:32.731Z,1016.6
2017-06-05T08:20:36.033Z,1016.6
2017-06-05T08:21:38.968Z,1016.6
2017-06-05T08:23:44.182Z,1016.6
2017-06-05T08:24:46.983Z,1016.6
2017-06-05T08:25:50.044Z,1016.6
2017-06-05T08:26:53.103Z,1016.7
2017-06-05T08:28:58.692Z,1016.6
2017-06-05T08:30:01.372Z,1016.6
2017-06-05T08:31:04.179Z,1016.6
2017-06-05T08:33:10.196Z,1016.6
2017-06-05T08:34:13.014Z,1016.6
2017-06-05T08:35:15.820Z,1016.6
2017-06-05T08:36:18.499Z,1016.6
2017-06-05T08:39:27.277Z,1016.5
2017-06-05T08:41:32.890Z,1016.5
2017-06-05T08:42:35.683Z,1016.6
2017-06-05T08:44:41.646Z,1016.6
2017-06-05T08:45:44.448Z,1016.6
2017-06-05T08:46:47.251Z,1016.6
2017-06-05T08:48:52.967Z,1016.5
2017-06-05T08:53:04.681Z,1016.5
2017-06-05T08:55:09.893Z,1016.5
2017-06-05T08:56:12.696Z,1016.5
2017-06-05T08:57:15.515Z,1016.5
2017-06-05T09:00:24.443Z,1016.5
2017-06-05T09:03:33.074Z,1016.4
2017-06-05T09:04:35.877Z,1016.4
2017-06-05T09:05:38.861Z,1016.4
2017-06-05T09:06:41.656Z,1016.4
2017-06-05T09:07:44.463Z,1016.4
2017-06-05T09:08:47.262Z,1016.4
2017-06-05T09:09:49.936Z,1016.3
2017-06-05T09:10:53.037Z,1016.3
2017-06-05T09:11:55.717Z,1016.3
2017-06-05T09:14:01.431Z,1016.2
2017-06-05T09:17:10.187Z,1016.2
2017-06-05T09:18:12.989Z,1016.2
2017-06-05T09:19:15.796Z,1016.2
2017-06-05T09:24:30.502Z,1016.2
2017-06-05T09:25:33.302Z,1016
2017-06-05T09:26:35.804Z,1016.2
2017-06-05T09:27:38.602Z,1016.2
2017-06-05T09:28:41.906Z,1016.2
2017-06-05T09:29:44.952Z,1016.2
2017-06-05T09:31:50.157Z,1016.2
2017-06-05T09:32:52.953Z,1016.2
2017-06-05T09:34:58.966Z,1016.2
2017-06-05T09:37:04.677Z,1016.2
2017-06-05T09:39:10.392Z,1016
2017-06-05T09:40:13.447Z,1016
2017-06-05T09:42:19.168Z,1016
2017-06-05T09:43:21.729Z,1016
2017-06-05T09:44:24.923Z,1016
2017-06-05T09:45:27.977Z,1016
2017-06-05T09:46:30.276Z,1016
2017-06-05T09:47:33.082Z,1016
2017-06-05T09:50:42.347Z,1016
2017-06-05T09:51:45.028Z,1015.9
2017-06-05T09:52:47.595Z,1016
2017-06-05T09:54:53.575Z,1015.9
2017-06-05T09:55:56.518Z,1015.9
2017-06-05T09:58:02.228Z,1015.9
2017-06-05T09:59:05.113Z,1015.9
2017-06-05T10:00:07.921Z,1015.9
2017-06-05T10:02:13.765Z,1015.9
2017-06-05T10:04:19.477Z,1015.8
2017-06-05T10:05:22.044Z,1015.8
2017-06-05T10:06:25.229Z,1015.8
2017-06-05T10:07:28.171Z,1015.8
2017-06-05T10:09:33.888Z,1015.8
2017-06-05T10:10:36.690Z,1015.7
2017-06-05T10:11:39.490Z,1015.8
2017-06-05T10:12:42.588Z,1015.8
2017-06-05T10:13:45.394Z,1015.8
2017-06-05T10:14:48.072Z,1015.8
2017-06-05T10:15:50.876Z,1015.8
2017-06-05T10:16:54.061Z,1015.8
2017-06-05T10:17:56.991Z,1015.8
2017-06-05T10:18:59.551Z,1015.7
2017-06-05T10:20:02.356Z,1015.8
2017-06-05T10:21:05.425Z,1015.7
2017-06-05T10:23:11.393Z,1015.7
2017-06-05T10:24:14.074Z,1015.7
2017-06-05T10:25:16.870Z,1015.6
2017-06-05T10:26:19.982Z,1015.6
2017-06-05T10:27:22.666Z,1015.6
2017-06-05T10:29:28.693Z,1015.6
2017-06-05T10:30:30.995Z,1015.5
2017-06-05T10:32:37.214Z,1015.6
2017-06-05T10:33:40.019Z,1015.5
2017-06-05T10:34:43.070Z,1015.5
2017-06-05T10:35:45.869Z,1015.6
2017-06-05T10:36:48.675Z,1015.5
2017-06-05T10:37:51.474Z,1015.5
2017-06-05T10:38:54.273Z,1015.5
2017-06-05T10:39:57.647Z,1015.4
2017-06-05T10:42:02.850Z,1015.4
2017-06-05T10:43:05.916Z,1015.4
2017-06-05T10:44:08.733Z,1015.4
2017-06-05T10:45:11.795Z,1015.4
2017-06-05T10:46:14.598Z,1015.4
2017-06-05T10:47:17.403Z,1015.4
2017-06-05T10:49:23.122Z,1015.4
2017-06-05T10:51:29.088Z,1015.4
2017-06-05T10:52:31.781Z,1015.4
2017-06-05T10:58:49.289Z,1015.3
2017-06-05T10:59:51.560Z,1015.3
2017-06-05T11:01:57.662Z,1015.3
2017-06-05T11:03:00.588Z,1015.3
2017-06-05T11:05:06.202Z,1015.2
2017-06-05T11:06:08.755Z,1015.2
2017-06-05T11:07:11.660Z,1015.3
2017-06-05T11:09:17.786Z,1015.2
2017-06-05T11:13:29.299Z,1015.2
2017-06-05T11:14:32.008Z,1015.2
2017-06-05T11:15:34.779Z,1015.1
2017-06-05T11:17:40.682Z,1015.1
2017-06-05T11:18:43.957Z,1015
2017-06-05T11:19:46.225Z,1015.1
2017-06-05T11:21:51.894Z,1015.1
2017-06-05T11:23:58.304Z,1015
2017-06-05T11:25:00.618Z,1015
2017-06-05T11:26:03.429Z,1015
2017-06-05T11:27:06.743Z,1015
2017-06-05T11:28:09.313Z,1015
2017-06-05T11:30:15.245Z,1014.9
2017-06-05T11:31:18.294Z,1014.9
2017-06-05T11:33:23.988Z,1015
2017-06-05T11:35:29.996Z,1015
2017-06-05T11:36:32.293Z,1014.9
2017-06-05T11:39:41.301Z,1015
2017-06-05T11:40:44.420Z,1015
2017-06-05T11:41:47.105Z,1014.9
2017-06-05T11:42:49.901Z,1014.9
2017-06-05T11:43:52.700Z,1014.9
2017-06-05T11:45:58.663Z,1014.9
2017-06-05T11:47:01.383Z,1014.8
2017-06-05T11:49:07.095Z,1014.9
2017-06-05T11:50:09.892Z,1014.9
2017-06-05T11:51:13.005Z,1014.8
2017-06-05T11:52:15.808Z,1014.8
2017-06-05T11:55:24.432Z,1014.9
2017-06-05T11:56:27.487Z,1014.8
2017-06-05T11:57:30.290Z,1014.8
2017-06-05T11:58:32.970Z,1014.7
2017-06-05T11:59:35.779Z,1014.7
2017-06-05T12:00:38.578Z,1014.7
2017-06-05T12:01:42.138Z,1014.7
2017-06-05T12:02:44.435Z,1014.7
2017-06-05T12:03:47.237Z,1014.7
2017-06-05T12:04:50.545Z,1014.7
2017-06-05T12:06:56.512Z,1014.7
2017-06-05T12:09:01.605Z,1014.7
2017-06-05T12:10:04.912Z,1014.6
2017-06-05T12:11:07.590Z,1014.6
2017-06-05T12:12:10.719Z,1014.6
2017-06-05T12:13:13.525Z,1014.6
2017-06-05T12:14:16.206Z,1014.6
2017-06-05T12:16:22.180Z,1014.6
2017-06-05T12:17:25.115Z,1014.6
2017-06-05T12:18:27.915Z,1014.6
2017-06-05T12:19:30.713Z,1014.6
2017-06-05T12:21:36.302Z,1014.7
2017-06-05T12:22:39.357Z,1014.5
2017-06-05T12:24:45.068Z,1014.5
2017-06-05T12:25:47.871Z,1014.5
2017-06-05T12:28:56.799Z,1014.4
2017-06-05T12:29:59.599Z,1014.5
2017-06-05T12:31:02.278Z,1014.5
2017-06-05T12:35:14.072Z,1014.4
2017-06-05T12:36:16.872Z,1014.4
2017-06-05T12:37:19.671Z,1014.4
2017-06-05T12:41:31.032Z,1014.3
2017-06-05T12:43:36.751Z,1014.2
2017-06-05T12:44:39.550Z,1014.2
2017-06-05T12:45:42.737Z,1014.1
2017-06-05T12:46:45.675Z,1014.2
2017-06-05T12:47:48.479Z,1014.2
2017-06-05T12:48:51.284Z,1014.1
2017-06-05T12:50:56.999Z,1014.1
2017-06-05T12:53:02.773Z,1014
2017-06-05T12:55:08.483Z,1014.1
2017-06-05T12:56:11.225Z,1014.1
2017-06-05T12:57:13.913Z,1014
2017-06-05T12:58:17.471Z,1014
2017-06-05T12:59:19.651Z,1014
2017-06-05T13:02:28.438Z,1014
2017-06-05T13:03:31.488Z,1013.9
2017-06-05T13:04:34.290Z,1013.9
2017-06-05T13:05:36.856Z,1013.9
2017-06-05T13:06:40.163Z,1014
2017-06-05T13:07:42.966Z,1013.9
2017-06-05T13:08:46.072Z,1013.9
2017-06-05T13:09:48.751Z,1013.9
2017-06-05T13:10:51.549Z,1013.9
2017-06-05T13:11:54.354Z,1013.9
2017-06-05T13:12:57.156Z,1013.9
2017-06-05T13:14:00.214Z,1013.9
2017-06-05T13:15:03.026Z,1013.8
2017-06-05T13:16:06.086Z,1013.8
2017-06-05T13:17:08.765Z,1013.8
2017-06-05T13:18:11.561Z,1013.8
2017-06-05T13:19:14.617Z,1013.8
2017-06-05T13:21:20.331Z,1013.8
2017-06-05T13:22:23.403Z,1013.7
2017-06-05T13:24:29.368Z,1013.7
2017-06-05T13:25:32.054Z,1013.7
2017-06-05T13:26:34.739Z,1013.7
2017-06-05T13:27:37.537Z,1013.6
2017-06-05T13:29:43.498Z,1013.6
2017-06-05T13:30:46.299Z,1013.6
2017-06-05T13:31:49.102Z,1013.6
2017-06-05T13:32:51.980Z,1013.5
2017-06-05T13:33:54.781Z,1013.5
2017-06-05T13:34:58.387Z,1013.5
2017-06-05T13:36:00.685Z,1013.5
2017-06-05T13:37:03.485Z,1013.4
2017-06-05T13:38:06.670Z,1013.5
2017-06-05T13:39:09.355Z,1013.5
2017-06-05T13:40:12.405Z,1013.5
2017-06-05T13:42:18.003Z,1013.5
2017-06-05T13:43:20.803Z,1013.5
2017-06-05T13:44:24.103Z,1013.5
2017-06-05T13:45:27.210Z,1013.5
2017-06-05T13:46:29.506Z,1013.6
2017-06-05T13:47:32.815Z,1013.6
2017-06-05T13:50:41.704Z,1013.6
2017-06-05T13:51:44.387Z,1013.5
2017-06-05T13:52:47.185Z,1013.6
2017-06-05T13:53:49.986Z,1013.5
2017-06-05T13:54:52.790Z,1013.5
2017-06-05T13:56:58.763Z,1013.5
2017-06-05T13:58:01.445Z,1013.5
2017-06-05T14:00:07.164Z,1013.5
2017-06-05T14:02:13.155Z,1013.5
2017-06-05T14:03:15.957Z,1013.5
2017-06-05T14:04:18.768Z,1013.4
2017-06-05T14:05:21.570Z,1013.5
2017-06-05T14:06:24.382Z,1013.5
2017-06-05T14:07:27.436Z,1013.5
2017-06-05T14:08:30.234Z,1013.6
2017-06-05T14:09:33.042Z,1013.5
2017-06-05T14:10:35.848Z,1013.6
2017-06-05T14:11:39.153Z,1013.5
2017-06-05T14:12:42.228Z,1013.6
2017-06-05T14:13:44.571Z,1013.5
2017-06-05T14:14:47.324Z,1013.6
2017-06-05T14:25:15.973Z,1013.7
2017-06-05T14:27:21.725Z,1013.8
2017-06-05T14:29:27.729Z,1013.9
2017-06-05T14:30:30.426Z,1013.9
2017-06-05T14:32:35.926Z,1014.1
2017-06-05T14:33:38.733Z,1014
2017-06-05T14:35:44.698Z,1014.2
2017-06-05T14:36:47.513Z,1014.2
2017-06-05T14:38:52.921Z,1014.3
2017-06-05T14:39:56.040Z,1014.4
2017-06-05T14:40:59.106Z,1014.5
2017-06-05T14:42:01.857Z,1014.4
2017-06-05T14:44:07.436Z,1014.5
2017-06-05T14:45:09.951Z,1014.4
2017-06-05T14:46:13.415Z,1014.5
2017-06-05T14:47:15.858Z,1014.4
2017-06-05T14:48:18.517Z,1014.5
2017-06-05T14:50:24.292Z,1014.5
2017-06-05T14:51:27.227Z,1014.5
2017-06-05T14:52:29.907Z,1014.5
2017-06-05T14:53:32.710Z,1014.5
2017-06-05T14:54:35.395Z,1014.5
2017-06-05T14:55:38.078Z,1014.5
2017-06-05T14:56:41.126Z,1014.7
2017-06-05T14:57:43.924Z,1014.6
2017-06-05T14:58:46.726Z,1014.7
2017-06-05T14:59:49.522Z,1014.7
2017-06-05T15:00:52.208Z,1014.7
2017-06-05T15:01:55.310Z,1014.7
2017-06-05T15:04:00.530Z,1014.6
2017-06-05T15:05:03.217Z,1014.6
2017-06-05T15:06:06.402Z,1014.5
2017-06-05T15:07:09.151Z,1014.5
2017-06-05T15:08:11.954Z,1014.5
2017-06-05T15:09:14.754Z,1014.5
2017-06-05T15:10:17.559Z,1014.5
2017-06-05T15:11:20.243Z,1014.4
2017-06-05T15:14:28.699Z,1014.3
2017-06-05T15:15:31.500Z,1014.2
2017-06-05T15:16:34.180Z,1014.3
2017-06-05T15:17:36.984Z,1014.2
2017-06-05T15:18:39.818Z,1014.2
2017-06-05T15:20:45.787Z,1014.1
2017-06-05T15:22:50.997Z,1014.1
2017-06-05T15:24:56.366Z,1014.1
2017-06-05T15:27:02.334Z,1014.2
2017-06-05T15:31:12.861Z,1014.2
2017-06-05T15:33:18.833Z,1014.1
2017-06-05T15:34:21.643Z,1014
2017-06-05T15:37:29.656Z,1013.9
2017-06-05T15:39:35.624Z,1013.9
2017-06-05T15:41:40.851Z,1013.9
2017-06-05T15:42:43.841Z,1013.9
2017-06-05T15:43:47.061Z,1013.9
2017-06-05T15:44:49.612Z,1013.9
2017-06-05T15:45:51.912Z,1013.9
2017-06-05T15:46:54.721Z,1013.9
2017-06-05T15:49:00.434Z,1013.9
2017-06-05T15:50:03.491Z,1013.9
2017-06-05T15:52:08.701Z,1013.9
2017-06-05T15:55:17.333Z,1013.9
2017-06-05T15:56:19.892Z,1013.9
2017-06-05T15:58:24.988Z,1013.9
2017-06-05T15:59:28.051Z,1013.9
2017-06-05T16:00:31.110Z,1013.9
2017-06-05T16:01:33.291Z,1013.9
2017-06-05T16:02:36.096Z,1013.9
2017-06-05T16:03:39.282Z,1013.9
2017-06-05T16:04:42.081Z,1013.9
2017-06-05T16:05:45.184Z,1013.9
2017-06-05T16:06:47.475Z,1013.9
2017-06-05T16:07:50.276Z,1013.9
2017-06-05T16:10:58.660Z,1014
2017-06-05T16:14:06.779Z,1013.9
2017-06-05T16:15:09.587Z,1014
2017-06-05T16:16:12.642Z,1013.9
2017-06-05T16:17:15.327Z,1014
2017-06-05T16:18:18.011Z,1014
2017-06-05T16:20:23.612Z,1014
2017-06-05T16:21:26.721Z,1014
2017-06-05T16:22:29.104Z,1014
2017-06-05T16:23:31.790Z,1014.1
2017-06-05T16:24:34.470Z,1014
2017-06-05T16:25:37.269Z,1014
2017-06-05T16:28:46.146Z,1014
2017-06-05T16:29:48.446Z,1014
2017-06-05T16:30:51.246Z,1013.9
2017-06-05T16:32:56.829Z,1013.9
2017-06-05T16:35:02.301Z,1013.9
2017-06-05T16:36:05.122Z,1013.9
2017-06-05T16:37:07.818Z,1014
2017-06-05T16:38:10.650Z,1013.9
2017-06-05T16:39:13.466Z,1014
2017-06-05T16:40:16.472Z,1014
2017-06-05T16:41:18.865Z,1013.9
2017-06-05T16:45:30.496Z,1013.8
2017-06-05T16:46:32.585Z,1013.7
2017-06-05T16:47:35.292Z,1013.7
2017-06-05T16:48:38.370Z,1013.7
2017-06-05T16:49:40.931Z,1013.7
2017-06-05T16:50:44.508Z,1013.7
2017-06-05T16:51:46.587Z,1013.7
2017-06-05T16:52:49.295Z,1013.7
2017-06-05T16:53:52.117Z,1013.7
2017-06-05T16:54:55.063Z,1013.7
2017-06-05T16:58:03.533Z,1013.6
2017-06-05T16:59:05.978Z,1013.5
2017-06-05T17:00:08.801Z,1013.5
2017-06-05T17:01:11.913Z,1013.5
2017-06-05T17:02:14.235Z,1013.6
2017-06-05T17:03:17.241Z,1013.5
2017-06-05T17:04:19.824Z,1013.5
2017-06-05T17:05:22.903Z,1013.4
2017-06-05T17:06:25.598Z,1013.5
2017-06-05T17:07:28.305Z,1013.5
2017-06-05T17:09:34.057Z,1013.6
2017-06-05T17:11:39.220Z,1013.5
2017-06-05T17:12:41.858Z,1013.5
2017-06-05T17:14:47.611Z,1013.5
2017-06-05T17:16:52.984Z,1013.5
2017-06-05T17:17:55.970Z,1013.5
2017-06-05T17:18:58.768Z,1013.5
2017-06-05T17:21:04.307Z,1013.4
2017-06-05T17:22:07.014Z,1013.4
2017-06-05T17:24:12.164Z,1013.4
2017-06-05T17:25:15.130Z,1013.4
2017-06-05T17:26:18.083Z,1013.3
2017-06-05T17:28:23.205Z,1013.3
2017-06-05T17:31:31.892Z,1013.2
2017-06-05T17:33:37.123Z,1013.2
2017-06-05T17:35:42.899Z,1013.1
2017-06-05T17:36:45.952Z,1013.1
2017-06-05T17:37:48.035Z,1013.1
2017-06-05T17:39:53.926Z,1013.1
2017-06-05T17:40:56.594Z,1013.1
2017-06-05T17:43:02.524Z,1013.1
2017-06-05T17:45:07.768Z,1013
2017-06-05T17:46:10.597Z,1013
2017-06-05T17:48:16.401Z,1013
2017-06-05T17:49:18.766Z,1013.1
2017-06-05T17:50:21.666Z,1013.1
2017-06-05T17:51:24.082Z,1013.1
2017-06-05T17:52:26.859Z,1013.1
2017-06-05T17:54:32.889Z,1013.1
2017-06-05T17:55:35.456Z,1013.1
2017-06-05T17:56:38.024Z,1013.1
2017-06-05T17:57:40.585Z,1013.1
2017-06-05T17:58:43.404Z,1013
2017-06-05T17:59:46.303Z,1013
2017-06-05T18:01:51.592Z,1013
2017-06-05T18:03:57.343Z,1013
2017-06-05T18:05:00.174Z,1013
2017-06-05T18:06:02.800Z,1013.1
2017-06-05T18:07:05.618Z,1013
2017-06-05T18:11:16.664Z,1013.1
2017-06-05T18:12:19.238Z,1013.1